OAS9474 SKBO-SKCL
Flight info
| Callsign | OAS9474 |
|---|---|
| Flight time | 0h 33m |
| Altitude | 22000 |
| Route | VAPOM4R OREGA OREGA5A |
| Aircraft | A320/M-SDE3FGHIRWY/LB1 |
Departure
| Time | 2026-05-09 23:46 |
|---|---|
| Airport | El Dorado International Airport (SKBO) |
Arrival
| Time | 2026-05-10 00:20 |
|---|---|
| Airport | Alfonso Bonilla Aragon International Airport (SKCL) |
| Time | Latitude | Longitude | Altitude | Speed | Heading |
|---|---|---|---|---|---|
| 2026-05-09 22:53 | 4.69900 | -74.14496 | 8366 ft | 0 kts | 209° |
| 2026-05-09 23:30 | 4.69916 | -74.14487 | 8366 ft | 3 kts | 209° |
| 2026-05-09 23:30 | 4.69933 | -74.14476 | 8366 ft | 2 kts | 217° |
| 2026-05-09 23:30 | 4.69946 | -74.14462 | 8366 ft | 3 kts | 270° |
| 2026-05-09 23:30 | 4.69941 | -74.14442 | 8366 ft | 3 kts | 300° |
| 2026-05-09 23:31 | 4.69928 | -74.14423 | 8366 ft | 3 kts | 307° |
| 2026-05-09 23:31 | 4.69915 | -74.14405 | 8366 ft | 3 kts | 307° |
| 2026-05-09 23:31 | 4.69902 | -74.14388 | 8366 ft | 3 kts | 307° |
| 2026-05-09 23:31 | 4.69896 | -74.14380 | 8366 ft | 0 kts | 307° |
| 2026-05-09 23:35 | 4.69911 | -74.14401 | 8366 ft | 7 kts | 307° |
| 2026-05-09 23:35 | 4.69946 | -74.14447 | 8366 ft | 10 kts | 307° |
| 2026-05-09 23:35 | 4.69990 | -74.14505 | 8366 ft | 10 kts | 307° |
| 2026-05-09 23:36 | 4.70033 | -74.14563 | 8366 ft | 11 kts | 306° |
| 2026-05-09 23:36 | 4.70083 | -74.14598 | 8366 ft | 6 kts | 328° |
| 2026-05-09 23:36 | 4.70122 | -74.14634 | 8366 ft | 9 kts | 323° |
| 2026-05-09 23:36 | 4.70169 | -74.14683 | 8366 ft | 11 kts | 283° |
| 2026-05-09 23:37 | 4.70118 | -74.14737 | 8366 ft | 12 kts | 215° |
| 2026-05-09 23:37 | 4.70041 | -74.14793 | 8366 ft | 15 kts | 217° |
| 2026-05-09 23:37 | 4.69968 | -74.14849 | 8366 ft | 13 kts | 217° |
| 2026-05-09 23:37 | 4.69898 | -74.14901 | 8366 ft | 11 kts | 217° |
| 2026-05-09 23:38 | 4.69848 | -74.14962 | 8366 ft | 12 kts | 277° |
| 2026-05-09 23:38 | 4.69898 | -74.15033 | 8366 ft | 14 kts | 308° |
| 2026-05-09 23:38 | 4.69962 | -74.15118 | 8366 ft | 17 kts | 307° |
| 2026-05-09 23:38 | 4.70036 | -74.15215 | 8366 ft | 17 kts | 307° |
| 2026-05-09 23:39 | 4.70110 | -74.15313 | 8366 ft | 16 kts | 308° |
| 2026-05-09 23:39 | 4.70176 | -74.15398 | 8365 ft | 16 kts | 307° |
| 2026-05-09 23:39 | 4.70249 | -74.15493 | 8366 ft | 18 kts | 308° |
| 2026-05-09 23:39 | 4.70318 | -74.15586 | 8365 ft | 16 kts | 306° |
| 2026-05-09 23:40 | 4.70381 | -74.15670 | 8365 ft | 16 kts | 307° |
| 2026-05-09 23:40 | 4.70452 | -74.15765 | 8366 ft | 18 kts | 307° |
| 2026-05-09 23:40 | 4.70528 | -74.15865 | 8366 ft | 16 kts | 307° |
| 2026-05-09 23:40 | 4.70601 | -74.15962 | 8366 ft | 19 kts | 307° |
| 2026-05-09 23:41 | 4.70673 | -74.16055 | 8366 ft | 17 kts | 308° |
| 2026-05-09 23:41 | 4.70750 | -74.16155 | 8366 ft | 20 kts | 307° |
| 2026-05-09 23:41 | 4.70829 | -74.16259 | 8366 ft | 19 kts | 307° |
| 2026-05-09 23:41 | 4.70912 | -74.16368 | 8366 ft | 17 kts | 307° |
| 2026-05-09 23:42 | 4.70977 | -74.16457 | 8366 ft | 15 kts | 307° |
| 2026-05-09 23:42 | 4.71045 | -74.16547 | 8366 ft | 17 kts | 307° |
| 2026-05-09 23:42 | 4.71113 | -74.16638 | 8366 ft | 17 kts | 308° |
| 2026-05-09 23:42 | 4.71189 | -74.16736 | 8366 ft | 15 kts | 307° |
| 2026-05-09 23:43 | 4.71176 | -74.16814 | 8365 ft | 10 kts | 221° |
| 2026-05-09 23:43 | 4.71148 | -74.16835 | 8364 ft | 0 kts | 216° |
| 2026-05-09 23:43 | 4.71147 | -74.16835 | 8364 ft | 1 kts | 216° |
| 2026-05-09 23:44 | 4.71120 | -74.16855 | 8364 ft | 8 kts | 216° |
| 2026-05-09 23:44 | 4.71068 | -74.16893 | 8363 ft | 10 kts | 216° |
| 2026-05-09 23:44 | 4.71038 | -74.16898 | 8363 ft | 4 kts | 138° |
| 2026-05-09 23:45 | 4.71029 | -74.16887 | 8363 ft | 0 kts | 128° |
| 2026-05-09 23:45 | 4.71028 | -74.16887 | 8363 ft | 1 kts | 128° |
| 2026-05-09 23:46 | 4.70910 | -74.16734 | 8363 ft | 63 kts | 127° |
| 2026-05-09 23:46 | 4.70519 | -74.16209 | 8366 ft | 123 kts | 127° |
| 2026-05-09 23:46 | 4.69896 | -74.15388 | 8367 ft | 171 kts | 127° |
| 2026-05-09 23:46 | 4.69149 | -74.14407 | 8986 ft | 173 kts | 126° |
| 2026-05-09 23:47 | 4.68384 | -74.13498 | 9811 ft | 170 kts | 143° |
| 2026-05-09 23:47 | 4.67217 | -74.13209 | 10089 ft | 190 kts | 191° |
| 2026-05-09 23:47 | 4.66049 | -74.13924 | 10307 ft | 211 kts | 229° |
| 2026-05-09 23:47 | 4.65157 | -74.15174 | 10471 ft | 231 kts | 234° |
| 2026-05-09 23:48 | 4.64242 | -74.16581 | 10675 ft | 247 kts | 236° |
| 2026-05-09 23:48 | 4.63299 | -74.18048 | 11073 ft | 252 kts | 234° |
| 2026-05-09 23:48 | 4.62337 | -74.19526 | 11521 ft | 255 kts | 234° |
| 2026-05-09 23:49 | 4.61100 | -74.22935 | 12142 ft | 282 kts | 257° |
| 2026-05-09 23:49 | 4.60715 | -74.24949 | 12321 ft | 306 kts | 258° |
| 2026-05-09 23:49 | 4.60269 | -74.27118 | 12484 ft | 329 kts | 251° |
| 2026-05-09 23:49 | 4.59330 | -74.29277 | 12643 ft | 347 kts | 242° |
| 2026-05-09 23:50 | 4.58218 | -74.31461 | 13152 ft | 355 kts | 241° |
| 2026-05-09 23:50 | 4.57071 | -74.33671 | 13780 ft | 359 kts | 240° |
| 2026-05-09 23:50 | 4.55913 | -74.35895 | 14323 ft | 363 kts | 241° |
| 2026-05-09 23:50 | 4.54742 | -74.38160 | 14858 ft | 366 kts | 242° |
| 2026-05-09 23:51 | 4.53572 | -74.40437 | 15399 ft | 369 kts | 242° |
| 2026-05-09 23:51 | 4.52398 | -74.42731 | 15955 ft | 371 kts | 242° |
| 2026-05-09 23:51 | 4.51215 | -74.45046 | 16465 ft | 374 kts | 242° |
| 2026-05-09 23:51 | 4.50025 | -74.47374 | 17020 ft | 377 kts | 242° |
| 2026-05-09 23:52 | 4.48824 | -74.49725 | 17568 ft | 380 kts | 243° |
| 2026-05-09 23:52 | 4.47616 | -74.52090 | 18112 ft | 383 kts | 243° |
| 2026-05-09 23:52 | 4.46399 | -74.54472 | 18603 ft | 385 kts | 243° |
| 2026-05-09 23:52 | 4.45172 | -74.56871 | 19061 ft | 387 kts | 243° |
| 2026-05-09 23:53 | 4.43957 | -74.59248 | 19533 ft | 389 kts | 243° |
| 2026-05-09 23:53 | 4.42718 | -74.61663 | 19900 ft | 391 kts | 243° |
| 2026-05-09 23:53 | 4.41461 | -74.64112 | 19984 ft | 390 kts | 243° |
| 2026-05-09 23:53 | 4.40237 | -74.66495 | 20003 ft | 390 kts | 243° |
| 2026-05-09 23:54 | 4.38999 | -74.68906 | 19994 ft | 389 kts | 243° |
| 2026-05-09 23:54 | 4.37751 | -74.71331 | 20279 ft | 392 kts | 243° |
| 2026-05-09 23:54 | 4.36498 | -74.73765 | 20762 ft | 394 kts | 243° |
| 2026-05-09 23:54 | 4.35238 | -74.76217 | 21216 ft | 396 kts | 243° |
| 2026-05-09 23:55 | 4.33975 | -74.78676 | 21661 ft | 398 kts | 243° |
| 2026-05-09 23:55 | 4.32703 | -74.81146 | 21896 ft | 399 kts | 242° |
| 2026-05-09 23:55 | 4.31432 | -74.83603 | 21948 ft | 387 kts | 242° |
| 2026-05-09 23:55 | 4.30207 | -74.85968 | 21940 ft | 379 kts | 242° |
| 2026-05-09 23:56 | 4.29000 | -74.88302 | 21933 ft | 377 kts | 242° |
| 2026-05-09 23:56 | 4.27797 | -74.90635 | 21928 ft | 376 kts | 242° |
| 2026-05-09 23:56 | 4.26597 | -74.92964 | 21923 ft | 376 kts | 242° |
| 2026-05-09 23:56 | 4.25399 | -74.95284 | 21922 ft | 376 kts | 242° |
| 2026-05-09 23:57 | 4.24197 | -74.97611 | 21921 ft | 376 kts | 242° |
| 2026-05-09 23:57 | 4.22999 | -74.99938 | 21919 ft | 375 kts | 242° |
| 2026-05-09 23:57 | 4.21803 | -75.02261 | 21915 ft | 375 kts | 242° |
| 2026-05-09 23:57 | 4.20574 | -75.04547 | 21916 ft | 375 kts | 237° |
| 2026-05-09 23:58 | 4.19055 | -75.06667 | 21916 ft | 375 kts | 233° |
| 2026-05-09 23:58 | 4.17493 | -75.08758 | 21919 ft | 375 kts | 233° |
| 2026-05-09 23:58 | 4.15929 | -75.10847 | 21920 ft | 375 kts | 233° |
| 2026-05-09 23:58 | 4.14363 | -75.12937 | 21922 ft | 375 kts | 233° |
| 2026-05-09 23:59 | 4.12797 | -75.15023 | 21923 ft | 375 kts | 233° |
| 2026-05-09 23:59 | 4.11229 | -75.17111 | 21928 ft | 375 kts | 233° |
| 2026-05-09 23:59 | 4.09664 | -75.19196 | 21929 ft | 375 kts | 233° |
| 2026-05-09 23:59 | 4.08099 | -75.21286 | 21933 ft | 375 kts | 233° |
| 2026-05-10 00:00 | 4.07064 | -75.22670 | 21936 ft | 375 kts | 233° |
| 2026-05-10 00:00 | 4.04974 | -75.25464 | 21938 ft | 375 kts | 233° |
| 2026-05-10 00:00 | 4.03410 | -75.27553 | 21939 ft | 375 kts | 233° |
| 2026-05-10 00:00 | 4.01848 | -75.29638 | 21944 ft | 375 kts | 233° |
| 2026-05-10 00:01 | 4.00284 | -75.31726 | 21944 ft | 374 kts | 233° |
| 2026-05-10 00:01 | 3.98725 | -75.33810 | 21945 ft | 374 kts | 233° |
| 2026-05-10 00:01 | 3.97165 | -75.35896 | 21948 ft | 374 kts | 233° |
| 2026-05-10 00:01 | 3.95606 | -75.37977 | 21944 ft | 374 kts | 233° |
| 2026-05-10 00:02 | 3.94048 | -75.40057 | 21942 ft | 373 kts | 233° |
| 2026-05-10 00:02 | 3.92486 | -75.42138 | 21945 ft | 373 kts | 233° |
| 2026-05-10 00:02 | 3.90929 | -75.44213 | 21947 ft | 373 kts | 233° |
| 2026-05-10 00:02 | 3.89368 | -75.46296 | 21953 ft | 374 kts | 232° |
| 2026-05-10 00:03 | 3.87810 | -75.48376 | 21961 ft | 373 kts | 233° |
| 2026-05-10 00:03 | 3.86423 | -75.50568 | 21960 ft | 374 kts | 243° |
| 2026-05-10 00:03 | 3.85318 | -75.52923 | 21966 ft | 374 kts | 244° |
| 2026-05-10 00:03 | 3.84215 | -75.55271 | 21968 ft | 373 kts | 244° |
| 2026-05-10 00:04 | 3.83105 | -75.57625 | 21970 ft | 374 kts | 244° |
| 2026-05-10 00:04 | 3.82008 | -75.59941 | 21979 ft | 373 kts | 244° |
| 2026-05-10 00:04 | 3.80893 | -75.62292 | 21982 ft | 373 kts | 244° |
| 2026-05-10 00:04 | 3.79781 | -75.64640 | 21989 ft | 373 kts | 244° |
| 2026-05-10 00:05 | 3.78670 | -75.66986 | 21989 ft | 373 kts | 244° |
| 2026-05-10 00:05 | 3.77562 | -75.69333 | 21994 ft | 373 kts | 244° |
| 2026-05-10 00:05 | 3.76439 | -75.71716 | 21996 ft | 373 kts | 244° |
| 2026-05-10 00:05 | 3.75350 | -75.74028 | 21964 ft | 371 kts | 244° |
| 2026-05-10 00:06 | 3.74248 | -75.76364 | 21465 ft | 371 kts | 244° |
| 2026-05-10 00:06 | 3.73148 | -75.78690 | 21007 ft | 369 kts | 244° |
| 2026-05-10 00:06 | 3.72055 | -75.81004 | 20555 ft | 368 kts | 244° |
| 2026-05-10 00:06 | 3.70962 | -75.83314 | 20110 ft | 364 kts | 244° |
| 2026-05-10 00:07 | 3.69896 | -75.85569 | 19647 ft | 352 kts | 244° |
| 2026-05-10 00:07 | 3.68855 | -75.87775 | 19232 ft | 351 kts | 244° |
| 2026-05-10 00:07 | 3.67812 | -75.89981 | 18792 ft | 351 kts | 244° |
| 2026-05-10 00:07 | 3.66755 | -75.92217 | 18228 ft | 356 kts | 244° |
| 2026-05-10 00:08 | 3.65841 | -75.94146 | 18004 ft | 350 kts | 244° |
| 2026-05-10 00:08 | 3.64806 | -75.96335 | 17600 ft | 347 kts | 244° |
| 2026-05-10 00:08 | 3.63775 | -75.98518 | 17181 ft | 346 kts | 244° |
| 2026-05-10 00:08 | 3.62746 | -76.00697 | 16753 ft | 346 kts | 244° |
| 2026-05-10 00:09 | 3.61718 | -76.02867 | 16323 ft | 345 kts | 244° |
| 2026-05-10 00:09 | 3.60702 | -76.05014 | 16015 ft | 338 kts | 243° |
| 2026-05-10 00:09 | 3.59692 | -76.07150 | 15435 ft | 342 kts | 243° |
| 2026-05-10 00:09 | 3.58668 | -76.09316 | 14887 ft | 346 kts | 243° |
| 2026-05-10 00:10 | 3.57648 | -76.11479 | 14342 ft | 340 kts | 244° |
| 2026-05-10 00:10 | 3.56649 | -76.13596 | 13835 ft | 334 kts | 244° |
| 2026-05-10 00:10 | 3.55663 | -76.15680 | 13281 ft | 328 kts | 244° |
| 2026-05-10 00:10 | 3.54703 | -76.17716 | 12770 ft | 321 kts | 244° |
| 2026-05-10 00:11 | 3.53746 | -76.19745 | 12238 ft | 324 kts | 244° |
| 2026-05-10 00:11 | 3.52778 | -76.21797 | 11711 ft | 328 kts | 244° |
| 2026-05-10 00:11 | 3.52130 | -76.23167 | 11353 ft | 327 kts | 244° |
| 2026-05-10 00:11 | 3.51171 | -76.25197 | 10838 ft | 319 kts | 244° |
| 2026-05-10 00:12 | 3.50022 | -76.27044 | 10371 ft | 309 kts | 228° |
| 2026-05-10 00:12 | 3.48429 | -76.28432 | 9827 ft | 302 kts | 211° |
| 2026-05-10 00:12 | 3.46518 | -76.29267 | 9143 ft | 299 kts | 193° |
| 2026-05-10 00:12 | 3.44500 | -76.29708 | 8496 ft | 295 kts | 191° |
| 2026-05-10 00:13 | 3.42505 | -76.30143 | 7943 ft | 290 kts | 192° |
| 2026-05-10 00:13 | 3.40618 | -76.30560 | 7861 ft | 266 kts | 192° |
| 2026-05-10 00:13 | 3.38887 | -76.30943 | 7801 ft | 244 kts | 192° |
| 2026-05-10 00:13 | 3.37272 | -76.31303 | 7712 ft | 233 kts | 192° |
| 2026-05-10 00:14 | 3.35714 | -76.31651 | 7600 ft | 226 kts | 194° |
| 2026-05-10 00:14 | 3.34334 | -76.32320 | 7492 ft | 221 kts | 222° |
| 2026-05-10 00:14 | 3.33451 | -76.33555 | 7389 ft | 220 kts | 250° |
| 2026-05-10 00:14 | 3.33253 | -76.35058 | 7143 ft | 221 kts | 279° |
| 2026-05-10 00:15 | 3.33791 | -76.36482 | 6883 ft | 220 kts | 301° |
| 2026-05-10 00:15 | 3.34562 | -76.37809 | 6622 ft | 221 kts | 300° |
| 2026-05-10 00:15 | 3.35359 | -76.39125 | 6359 ft | 222 kts | 308° |
| 2026-05-10 00:15 | 3.36483 | -76.40155 | 6165 ft | 218 kts | 329° |
| 2026-05-10 00:16 | 3.37868 | -76.40719 | 5967 ft | 215 kts | 349° |
| 2026-05-10 00:16 | 3.39349 | -76.40766 | 5758 ft | 212 kts | 8° |
| 2026-05-10 00:16 | 3.40779 | -76.40518 | 5482 ft | 206 kts | 9° |
| 2026-05-10 00:16 | 3.42176 | -76.40276 | 5220 ft | 201 kts | 9° |
| 2026-05-10 00:17 | 3.43533 | -76.40040 | 4965 ft | 193 kts | 9° |
| 2026-05-10 00:17 | 3.44813 | -76.39818 | 4773 ft | 179 kts | 9° |
| 2026-05-10 00:17 | 3.45974 | -76.39616 | 4561 ft | 162 kts | 8° |
| 2026-05-10 00:17 | 3.47055 | -76.39429 | 4367 ft | 154 kts | 8° |
| 2026-05-10 00:18 | 3.48107 | -76.39247 | 4187 ft | 153 kts | 8° |
| 2026-05-10 00:18 | 3.49144 | -76.39067 | 3987 ft | 150 kts | 7° |
| 2026-05-10 00:18 | 3.50165 | -76.38889 | 3741 ft | 147 kts | 7° |
| 2026-05-10 00:18 | 3.51174 | -76.38721 | 3549 ft | 148 kts | 7° |
| 2026-05-10 00:19 | 3.52179 | -76.38530 | 3328 ft | 146 kts | 9° |
| 2026-05-10 00:19 | 3.53174 | -76.38367 | 3187 ft | 144 kts | 8° |
| 2026-05-10 00:19 | 3.54088 | -76.38206 | 3166 ft | 114 kts | 9° |
| 2026-05-10 00:19 | 3.54696 | -76.38103 | 3166 ft | 64 kts | 10° |
| 2026-05-10 00:20 | 3.55030 | -76.38047 | 3166 ft | 29 kts | 9° |
| 2026-05-10 00:20 | 3.55101 | -76.38095 | 3168 ft | 13 kts | 279° |
| 2026-05-10 00:20 | 3.55108 | -76.38141 | 3168 ft | 0 kts | 279° |
| 2026-05-10 00:21 | 3.55110 | -76.38154 | 3168 ft | 5 kts | 279° |
| 2026-05-10 00:21 | 3.55106 | -76.38193 | 3170 ft | 6 kts | 220° |
| 2026-05-10 00:21 | 3.55051 | -76.38204 | 3168 ft | 10 kts | 190° |
| 2026-05-10 00:21 | 3.54968 | -76.38220 | 3169 ft | 14 kts | 191° |
| 2026-05-10 00:22 | 3.54868 | -76.38238 | 3167 ft | 15 kts | 190° |
| 2026-05-10 00:22 | 3.54758 | -76.38257 | 3169 ft | 17 kts | 188° |
| 2026-05-10 00:22 | 3.54654 | -76.38273 | 3166 ft | 16 kts | 189° |
| 2026-05-10 00:22 | 3.54553 | -76.38290 | 3166 ft | 14 kts | 189° |
| 2026-05-10 00:23 | 3.54446 | -76.38308 | 3165 ft | 17 kts | 189° |
| 2026-05-10 00:23 | 3.54340 | -76.38328 | 3165 ft | 15 kts | 191° |
| 2026-05-10 00:23 | 3.54232 | -76.38347 | 3165 ft | 16 kts | 190° |
| 2026-05-10 00:23 | 3.54128 | -76.38366 | 3164 ft | 13 kts | 189° |
| 2026-05-10 00:24 | 3.54052 | -76.38406 | 3164 ft | 11 kts | 221° |
| 2026-05-10 00:24 | 3.53988 | -76.38462 | 3163 ft | 14 kts | 220° |
| 2026-05-10 00:24 | 3.53917 | -76.38521 | 3163 ft | 15 kts | 220° |
| 2026-05-10 00:24 | 3.53860 | -76.38581 | 3162 ft | 11 kts | 250° |
| 2026-05-10 00:25 | 3.53881 | -76.38649 | 3163 ft | 9 kts | 319° |
| 2026-05-10 00:25 | 3.53913 | -76.38695 | 3163 ft | 8 kts | 284° |
| 2026-05-10 00:25 | 3.53894 | -76.38725 | 3162 ft | 3 kts | 208° |
| 2026-05-10 00:25 | 3.53880 | -76.38731 | 3162 ft | 2 kts | 206° |
| 2026-05-10 00:26 | 3.53873 | -76.38735 | 3162 ft | 1 kts | 208° |
| 2026-05-10 00:26 | 3.53866 | -76.38738 | 3162 ft | 0 kts | 208° |
| 2026-05-10 00:26 | 3.53864 | -76.38740 | 3162 ft | 1 kts | 208° |
| 2026-05-10 00:26 | 3.53863 | -76.38740 | 3162 ft | 0 kts | 208° |